PWSweather.com
Personal Weather Stations
Station Observations
WOODBURYWX
Lighthouse Rd, Woodbury, Woodbury, CT 06798

Lighthouse Rd, WoodburyWoodbury, CT 06798

Lat: 41.553333, Lon: -73.224167

Elevation: 437

Station Type: Ambient Weather WS-1090

Latest ConditionsUpdated 2:31:00 AM EDT Thursday, Apr 2, 2015
Currently Today's Max Today's Min Today's Average
Temperature 25.5°F-3.6°C 28.9°F-1.7°C 25.5°F-3.6°C 27.4°F-2.6°C
Dew Point 14.7°F-9.6°C 14.7°F-9.6°C 7.7°F-13.5°C 11.6°F-11.3°C
Winds 0.2 mph S0.3 kmh S 1.3 mph NNW2.1 kmh NNW - 0.2 mph 0.3 kmh
Wind Gusts 0.9 mph1.4 kmh 2.6 mph4.2 kmh - -
Humidity 63% 63% 43% 51%
Pressure 30.27 in1025.1 mb 30.27 in1025.1 mb 30.20 in1022.7 mb -
Hour Temp Dew Point Humidity Winds Wind Gusts Pressure Precip Precip Rate Daily Precip Total
02:31 AM 25.5°F-3.6°C 14.7°F-9.6°C 63% 0.2 mph S0.3 kmh S 0.9 mph1.4 kmh 30.27 in1025.1 mb 0.00 in0.0 mm 0.00 in0.0 mm 0.00 in0.0 mm
02:30 AM 25.5°F-3.6°C 14.7°F-9.6°C 63% 0.2 mph S0.3 kmh S 0.9 mph1.4 kmh 30.27 in1025.1 mb 0.00 in0.0 mm 0.00 in0.0 mm 0.00 in0.0 mm
02:29 AM 25.5°F-3.6°C 14.3°F-9.8°C 62% 0.2 mph S0.3 kmh S 0.9 mph1.4 kmh 30.27 in1025.1 mb 0.00 in0.0 mm 0.00 in0.0 mm 0.00 in0.0 mm
02:28 AM 25.5°F-3.6°C 14.3°F-9.8°C 62% 0.1 mph S0.2 kmh S 0.9 mph1.4 kmh 30.27 in1025.1 mb 0.00 in0.0 mm 0.00 in0.0 mm 0.00 in0.0 mm
02:27 AM 25.5°F-3.6°C 13.9°F-10.1°C 61% Calm Calm -- 30.27 in1025.1 mb 0.00 in0.0 mm 0.00 in0.0 mm 0.00 in0.0 mm
02:26 AM 25.7°F-3.5°C 14.1°F-9.9°C 61% Calm Calm -- 30.26 in1024.7 mb 0.00 in0.0 mm 0.00 in0.0 mm 0.00 in0.0 mm
02:25 AM 25.7°F-3.5°C 14.1°F-9.9°C 61% Calm Calm -- 30.27 in1025.1 mb 0.00 in0.0 mm 0.00 in0.0 mm 0.00 in0.0 mm
02:24 AM 25.9°F-3.4°C 13.9°F-10.1°C 60% Calm Calm -- 30.26 in1024.7 mb 0.00 in0.0 mm 0.00 in0.0 mm 0.00 in0.0 mm
02:23 AM 25.9°F-3.4°C 13.9°F-10.1°C 60% Calm Calm -- 30.27 in1025.1 mb 0.00 in0.0 mm 0.00 in0.0 mm 0.00 in0.0 mm
02:22 AM 26.2°F-3.2°C 10.5°F-11.9°C 51% Calm Calm -- 30.26 in1024.7 mb 0.00 in0.0 mm 0.00 in0.0 mm 0.00 in0.0 mm
02:21 AM 26.2°F-3.2°C 10.5°F-11.9°C 51% Calm Calm -- 30.26 in1024.7 mb 0.00 in0.0 mm 0.00 in0.0 mm 0.00 in0.0 mm
02:20 AM 26.2°F-3.2°C 10.5°F-11.9°C 51% Calm Calm -- 30.26 in1024.7 mb 0.00 in0.0 mm 0.00 in0.0 mm 0.00 in0.0 mm
02:19 AM 26.2°F-3.2°C 10.5°F-11.9°C 51% Calm Calm -- 30.26 in1024.7 mb 0.00 in0.0 mm 0.00 in0.0 mm 0.00 in0.0 mm
02:18 AM 26.2°F-3.2°C 10.5°F-11.9°C 51% Calm Calm -- 30.25 in1024.4 mb 0.00 in0.0 mm 0.00 in0.0 mm 0.00 in0.0 mm
02:17 AM 26.2°F-3.2°C 10.5°F-11.9°C 51% Calm Calm -- 30.26 in1024.7 mb 0.00 in0.0 mm 0.00 in0.0 mm 0.00 in0.0 mm
02:16 AM 26.2°F-3.2°C 10.5°F-11.9°C 51% Calm Calm -- 30.26 in1024.7 mb 0.00 in0.0 mm 0.00 in0.0 mm 0.00 in0.0 mm
02:15 AM 26.2°F-3.2°C 10.5°F-11.9°C 51% Calm Calm -- 30.26 in1024.7 mb 0.00 in0.0 mm 0.00 in0.0 mm 0.00 in0.0 mm
02:14 AM 26.8°F-2.9°C 10.1°F-12.2°C 49% Calm Calm -- 30.25 in1024.4 mb 0.00 in0.0 mm 0.00 in0.0 mm 0.00 in0.0 mm
02:13 AM 26.8°F-2.9°C 9.7°F-12.4°C 48% Calm Calm -- 30.25 in1024.4 mb 0.00 in0.0 mm 0.00 in0.0 mm 0.00 in0.0 mm
02:12 AM 27.1°F-2.7°C 8.6°F-13.0°C 45% Calm Calm -- 30.25 in1024.4 mb 0.00 in0.0 mm 0.00 in0.0 mm 0.00 in0.0 mm
02:11 AM 27.3°F-2.6°C 8.7°F-12.9°C 45% Calm Calm -- 30.26 in1024.7 mb 0.00 in0.0 mm 0.00 in0.0 mm 0.00 in0.0 mm
02:10 AM 27.3°F-2.6°C 8.7°F-12.9°C 45% Calm Calm -- 30.25 in1024.4 mb 0.00 in0.0 mm 0.00 in0.0 mm 0.00 in0.0 mm
02:09 AM 27.5°F-2.5°C 8.9°F-12.8°C 45% Calm Calm -- 30.25 in1024.4 mb 0.00 in0.0 mm 0.00 in0.0 mm 0.00 in0.0 mm
02:08 AM 27.7°F-2.4°C 8.6°F-13.0°C 44% Calm Calm -- 30.25 in1024.4 mb 0.00 in0.0 mm 0.00 in0.0 mm 0.00 in0.0 mm
02:07 AM 27.5°F-2.5°C 8.9°F-12.8°C 45% Calm Calm -- 30.25 in1024.4 mb 0.00 in0.0 mm 0.00 in0.0 mm 0.00 in0.0 mm
02:06 AM 27.5°F-2.5°C 8.9°F-12.8°C 45% Calm Calm -- 30.25 in1024.4 mb 0.00 in0.0 mm 0.00 in0.0 mm 0.00 in0.0 mm
02:05 AM 27.3°F-2.6°C 8.7°F-12.9°C 45% Calm Calm -- 30.25 in1024.4 mb 0.00 in0.0 mm 0.00 in0.0 mm 0.00 in0.0 mm
02:04 AM 27.3°F-2.6°C 7.7°F-13.5°C 43% Calm Calm -- 30.25 in1024.4 mb 0.00 in0.0 mm 0.00 in0.0 mm 0.00 in0.0 mm
02:03 AM 27.3°F-2.6°C 7.7°F-13.5°C 43% Calm Calm -- 30.25 in1024.4 mb 0.00 in0.0 mm 0.00 in0.0 mm 0.00 in0.0 mm
02:02 AM 27.1°F-2.7°C 8.1°F-13.3°C 44% Calm Calm -- 30.25 in1024.4 mb 0.00 in0.0 mm 0.00 in0.0 mm 0.00 in0.0 mm
02:01 AM 27.1°F-2.7°C 8.1°F-13.3°C 44% Calm Calm -- 30.25 in1024.4 mb 0.00 in0.0 mm 0.00 in0.0 mm 0.00 in0.0 mm
02:00 AM 27.3°F-2.6°C 8.7°F-12.9°C 45% Calm Calm -- 30.25 in1024.4 mb 0.00 in0.0 mm 0.00 in0.0 mm 0.00 in0.0 mm
01:59 AM 27.3°F-2.6°C 8.7°F-12.9°C 45% Calm Calm -- 30.25 in1024.4 mb 0.00 in0.0 mm 0.00 in0.0 mm 0.00 in0.0 mm
01:58 AM 27.3°F-2.6°C 8.7°F-12.9°C 45% Calm Calm -- 30.24 in1024.0 mb 0.00 in0.0 mm 0.00 in0.0 mm 0.00 in0.0 mm
01:57 AM 27.3°F-2.6°C 8.7°F-12.9°C 45% Calm Calm -- 30.24 in1024.0 mb 0.00 in0.0 mm 0.00 in0.0 mm 0.00 in0.0 mm
01:56 AM 27.5°F-2.5°C 8.9°F-12.8°C 45% Calm Calm -- 30.25 in1024.4 mb 0.00 in0.0 mm 0.00 in0.0 mm 0.00 in0.0 mm
01:55 AM 27.5°F-2.5°C 9.4°F-12.6°C 46% Calm Calm -- 30.24 in1024.0 mb 0.00 in0.0 mm 0.00 in0.0 mm 0.00 in0.0 mm
01:54 AM 27.5°F-2.5°C 9.4°F-12.6°C 46% Calm Calm -- 30.24 in1024.0 mb 0.00 in0.0 mm 0.00 in0.0 mm 0.00 in0.0 mm
01:53 AM 27.3°F-2.6°C 9.7°F-12.4°C 47% Calm Calm -- 30.24 in1024.0 mb 0.00 in0.0 mm 0.00 in0.0 mm 0.00 in0.0 mm
01:52 AM 27.1°F-2.7°C 10.0°F-12.2°C 48% Calm Calm -- 30.24 in1024.0 mb 0.00 in0.0 mm 0.00 in0.0 mm 0.00 in0.0 mm
01:51 AM 27.1°F-2.7°C 10.0°F-12.2°C 48% Calm Calm -- 30.24 in1024.0 mb 0.00 in0.0 mm 0.00 in0.0 mm 0.00 in0.0 mm
01:50 AM 27.1°F-2.7°C 9.5°F-12.5°C 47% 0.1 mph N0.2 kmh N 1.7 mph2.7 kmh 30.24 in1024.0 mb 0.00 in0.0 mm 0.00 in0.0 mm 0.00 in0.0 mm
01:49 AM 27.1°F-2.7°C 9.5°F-12.5°C 47% 0.3 mph N0.5 kmh N 2.6 mph4.2 kmh 30.24 in1024.0 mb 0.00 in0.0 mm 0.00 in0.0 mm 0.00 in0.0 mm
01:48 AM 27.1°F-2.7°C 9.5°F-12.5°C 47% 0.4 mph N0.6 kmh N 2.6 mph4.2 kmh 30.24 in1024.0 mb 0.00 in0.0 mm 0.00 in0.0 mm 0.00 in0.0 mm
01:47 AM 27.1°F-2.7°C 10.0°F-12.2°C 48% 0.6 mph N1.0 kmh N 2.6 mph4.2 kmh 30.24 in1024.0 mb 0.00 in0.0 mm 0.00 in0.0 mm 0.00 in0.0 mm
01:46 AM 27.0°F-2.8°C 9.9°F-12.3°C 48% 0.7 mph N1.1 kmh N 2.6 mph4.2 kmh 30.24 in1024.0 mb 0.00 in0.0 mm 0.00 in0.0 mm 0.00 in0.0 mm
01:45 AM 27.1°F-2.7°C 10.0°F-12.2°C 48% 0.9 mph NNW1.4 kmh NNW 2.6 mph4.2 kmh 30.24 in1024.0 mb 0.00 in0.0 mm 0.00 in0.0 mm 0.00 in0.0 mm
01:44 AM 27.1°F-2.7°C 10.9°F-11.7°C 50% 1.0 mph NNW1.6 kmh NNW 2.6 mph4.2 kmh 30.23 in1023.7 mb 0.00 in0.0 mm 0.00 in0.0 mm 0.00 in0.0 mm
01:43 AM 27.1°F-2.7°C 11.4°F-11.4°C 51% 1.1 mph NNW1.8 kmh NNW 2.6 mph4.2 kmh 30.24 in1024.0 mb 0.00 in0.0 mm 0.00 in0.0 mm 0.00 in0.0 mm
01:42 AM 27.0°F-2.8°C 11.7°F-11.3°C 52% 1.1 mph NNW1.8 kmh NNW 2.6 mph4.2 kmh 30.24 in1024.0 mb 0.00 in0.0 mm 0.00 in0.0 mm 0.00 in0.0 mm
01:41 AM 27.0°F-2.8°C 12.1°F-11.1°C 53% 1.1 mph NNW1.8 kmh NNW 2.6 mph4.2 kmh 30.24 in1024.0 mb 0.00 in0.0 mm 0.00 in0.0 mm 0.00 in0.0 mm
01:40 AM 26.8°F-2.9°C 13.2°F-10.4°C 56% 0.9 mph NNW1.4 kmh NNW 2.6 mph4.2 kmh 30.24 in1024.0 mb 0.00 in0.0 mm 0.00 in0.0 mm 0.00 in0.0 mm
01:39 AM 26.6°F-3.0°C 13.8°F-10.1°C 58% 0.7 mph NNW1.1 kmh NNW 2.6 mph4.2 kmh 30.24 in1024.0 mb 0.00 in0.0 mm 0.00 in0.0 mm 0.00 in0.0 mm
01:38 AM 26.6°F-3.0°C 13.8°F-10.1°C 58% 0.7 mph NW1.1 kmh NW 2.6 mph4.2 kmh 30.24 in1024.0 mb 0.00 in0.0 mm 0.00 in0.0 mm 0.00 in0.0 mm
01:37 AM 26.2°F-3.2°C 13.8°F-10.1°C 59% 0.5 mph NNW0.8 kmh NNW 2.6 mph4.2 kmh 30.24 in1024.0 mb 0.00 in0.0 mm 0.00 in0.0 mm 0.00 in0.0 mm
01:36 AM 26.2°F-3.2°C 14.2°F-9.9°C 60% 0.4 mph NNW0.6 kmh NNW 2.6 mph4.2 kmh 30.24 in1024.0 mb 0.00 in0.0 mm 0.00 in0.0 mm 0.00 in0.0 mm
01:35 AM 26.2°F-3.2°C 14.2°F-9.9°C 60% 0.4 mph N0.6 kmh N 2.6 mph4.2 kmh 30.24 in1024.0 mb 0.00 in0.0 mm 0.00 in0.0 mm 0.00 in0.0 mm
01:34 AM 26.1°F-3.3°C 14.1°F-9.9°C 60% 0.3 mph N0.5 kmh N 1.7 mph2.7 kmh 30.24 in1024.0 mb 0.00 in0.0 mm 0.00 in0.0 mm 0.00 in0.0 mm
01:33 AM 26.1°F-3.3°C 14.1°F-9.9°C 60% 0.3 mph N0.5 kmh N 1.7 mph2.7 kmh 30.25 in1024.4 mb 0.00 in0.0 mm 0.00 in0.0 mm 0.00 in0.0 mm
01:32 AM 26.1°F-3.3°C 14.1°F-9.9°C 60% 0.3 mph N0.5 kmh N 1.7 mph2.7 kmh 30.24 in1024.0 mb 0.00 in0.0 mm 0.00 in0.0 mm 0.00 in0.0 mm
01:31 AM 26.1°F-3.3°C 14.1°F-9.9°C 60% 0.3 mph N0.5 kmh N 1.7 mph2.7 kmh 30.24 in1024.0 mb 0.00 in0.0 mm 0.00 in0.0 mm 0.00 in0.0 mm
01:30 AM 26.1°F-3.3°C 14.1°F-9.9°C 60% 0.3 mph N0.5 kmh N 1.7 mph2.7 kmh 30.25 in1024.4 mb 0.00 in0.0 mm 0.00 in0.0 mm 0.00 in0.0 mm
01:29 AM 26.1°F-3.3°C 14.1°F-9.9°C 60% 0.3 mph N0.5 kmh N 1.7 mph2.7 kmh 30.25 in1024.4 mb 0.00 in0.0 mm 0.00 in0.0 mm 0.00 in0.0 mm
01:28 AM 26.2°F-3.2°C 14.2°F-9.9°C 60% 0.3 mph N0.5 kmh N 1.7 mph2.7 kmh 30.25 in1024.4 mb 0.00 in0.0 mm 0.00 in0.0 mm 0.00 in0.0 mm
01:27 AM 26.2°F-3.2°C 14.2°F-9.9°C 60% 0.2 mph N0.3 kmh N 1.7 mph2.7 kmh 30.25 in1024.4 mb 0.00 in0.0 mm 0.00 in0.0 mm 0.00 in0.0 mm
01:26 AM 26.2°F-3.2°C 14.2°F-9.9°C 60% 0.2 mph N0.3 kmh N 1.7 mph2.7 kmh 30.25 in1024.4 mb 0.00 in0.0 mm 0.00 in0.0 mm 0.00 in0.0 mm
01:25 AM 26.2°F-3.2°C 14.2°F-9.9°C 60% 0.1 mph N0.2 kmh N 1.7 mph2.7 kmh 30.25 in1024.4 mb 0.00 in0.0 mm 0.00 in0.0 mm 0.00 in0.0 mm
01:24 AM 26.2°F-3.2°C 14.2°F-9.9°C 60% Calm Calm -- 30.25 in1024.4 mb 0.00 in0.0 mm 0.00 in0.0 mm 0.00 in0.0 mm
01:23 AM 26.2°F-3.2°C 14.2°F-9.9°C 60% Calm Calm -- 30.25 in1024.4 mb 0.00 in0.0 mm 0.00 in0.0 mm 0.00 in0.0 mm
01:22 AM 26.2°F-3.2°C 14.6°F-9.7°C 61% Calm Calm -- 30.25 in1024.4 mb 0.00 in0.0 mm 0.00 in0.0 mm 0.00 in0.0 mm
01:21 AM 26.2°F-3.2°C 14.6°F-9.7°C 61% Calm Calm -- 30.25 in1024.4 mb 0.00 in0.0 mm 0.00 in0.0 mm 0.00 in0.0 mm
01:20 AM 26.2°F-3.2°C 14.6°F-9.7°C 61% Calm Calm -- 30.25 in1024.4 mb 0.00 in0.0 mm 0.00 in0.0 mm 0.00 in0.0 mm
01:19 AM 26.1°F-3.3°C 14.4°F-9.8°C 61% Calm Calm -- 30.25 in1024.4 mb 0.00 in0.0 mm 0.00 in0.0 mm 0.00 in0.0 mm
01:18 AM 26.1°F-3.3°C 14.4°F-9.8°C 61% Calm Calm -- 30.25 in1024.4 mb 0.00 in0.0 mm 0.00 in0.0 mm 0.00 in0.0 mm
01:17 AM 26.2°F-3.2°C 14.2°F-9.9°C 60% Calm Calm -- 30.26 in1024.7 mb 0.00 in0.0 mm 0.00 in0.0 mm 0.00 in0.0 mm
01:16 AM 26.2°F-3.2°C 14.2°F-9.9°C 60% Calm Calm -- 30.25 in1024.4 mb 0.00 in0.0 mm 0.00 in0.0 mm 0.00 in0.0 mm
01:15 AM 26.2°F-3.2°C 14.2°F-9.9°C 60% Calm Calm -- 30.26 in1024.7 mb 0.00 in0.0 mm 0.00 in0.0 mm 0.00 in0.0 mm
01:14 AM 26.2°F-3.2°C 14.2°F-9.9°C 60% Calm Calm -- 30.25 in1024.4 mb 0.00 in0.0 mm 0.00 in0.0 mm 0.00 in0.0 mm
01:13 AM 26.2°F-3.2°C 14.2°F-9.9°C 60% Calm Calm -- 30.24 in1024.0 mb 0.00 in0.0 mm 0.00 in0.0 mm 0.00 in0.0 mm
01:12 AM 26.2°F-3.2°C 14.2°F-9.9°C 60% Calm Calm -- 30.25 in1024.4 mb 0.00 in0.0 mm 0.00 in0.0 mm 0.00 in0.0 mm
01:11 AM 26.4°F-3.1°C 14.4°F-9.8°C 60% Calm Calm -- 30.25 in1024.4 mb 0.00 in0.0 mm 0.00 in0.0 mm 0.00 in0.0 mm
01:10 AM 26.6°F-3.0°C 14.2°F-9.9°C 59% Calm Calm -- 30.25 in1024.4 mb 0.00 in0.0 mm 0.00 in0.0 mm 0.00 in0.0 mm
01:09 AM 26.6°F-3.0°C 13.8°F-10.1°C 58% Calm Calm -- 30.25 in1024.4 mb 0.00 in0.0 mm 0.00 in0.0 mm 0.00 in0.0 mm
01:08 AM 26.6°F-3.0°C 13.8°F-10.1°C 58% Calm Calm -- 30.24 in1024.0 mb 0.00 in0.0 mm 0.00 in0.0 mm 0.00 in0.0 mm
01:07 AM 26.6°F-3.0°C 13.8°F-10.1°C 58% Calm Calm -- 30.24 in1024.0 mb 0.00 in0.0 mm 0.00 in0.0 mm 0.00 in0.0 mm
01:06 AM 26.8°F-2.9°C 14.0°F-10.0°C 58% Calm Calm -- 30.24 in1024.0 mb 0.00 in0.0 mm 0.00 in0.0 mm 0.00 in0.0 mm
01:05 AM 26.8°F-2.9°C 14.0°F-10.0°C 58% Calm Calm -- 30.25 in1024.4 mb 0.00 in0.0 mm 0.00 in0.0 mm 0.00 in0.0 mm
01:04 AM 27.0°F-2.8°C 14.1°F-9.9°C 58% Calm Calm -- 30.25 in1024.4 mb 0.00 in0.0 mm 0.00 in0.0 mm 0.00 in0.0 mm
01:03 AM 27.0°F-2.8°C 13.7°F-10.2°C 57% Calm Calm -- 30.25 in1024.4 mb 0.00 in0.0 mm 0.00 in0.0 mm 0.00 in0.0 mm
01:02 AM 27.0°F-2.8°C 13.3°F-10.4°C 56% Calm Calm -- 30.25 in1024.4 mb 0.00 in0.0 mm 0.00 in0.0 mm 0.00 in0.0 mm
01:01 AM 26.8°F-2.9°C 13.2°F-10.4°C 56% Calm Calm -- 30.25 in1024.4 mb 0.00 in0.0 mm 0.00 in0.0 mm 0.00 in0.0 mm
01:00 AM 27.0°F-2.8°C 12.5°F-10.8°C 54% Calm Calm -- 30.25 in1024.4 mb 0.00 in0.0 mm 0.00 in0.0 mm 0.00 in0.0 mm
12:59 AM 27.1°F-2.7°C 12.3°F-10.9°C 53% Calm Calm -- 30.25 in1024.4 mb 0.00 in0.0 mm 0.00 in0.0 mm 0.00 in0.0 mm
12:58 AM 27.1°F-2.7°C 11.8°F-11.2°C 52% Calm Calm -- 30.25 in1024.4 mb 0.00 in0.0 mm 0.00 in0.0 mm 0.00 in0.0 mm
12:57 AM 27.3°F-2.6°C 11.5°F-11.4°C 51% Calm Calm 1.7 mph2.7 kmh 30.25 in1024.4 mb 0.00 in0.0 mm 0.00 in0.0 mm 0.00 in0.0 mm
12:56 AM 27.7°F-2.4°C 11.0°F-11.7°C 49% 0.3 mph N0.5 kmh N 1.7 mph2.7 kmh 30.25 in1024.4 mb 0.00 in0.0 mm 0.00 in0.0 mm 0.00 in0.0 mm
12:55 AM 27.7°F-2.4°C 11.0°F-11.7°C 49% 0.4 mph N0.6 kmh N 2.6 mph4.2 kmh 30.25 in1024.4 mb 0.00 in0.0 mm 0.00 in0.0 mm 0.00 in0.0 mm
12:54 AM 27.9°F-2.3°C 10.7°F-11.8°C 48% 0.6 mph N1.0 kmh N 2.6 mph4.2 kmh 30.25 in1024.4 mb 0.00 in0.0 mm 0.00 in0.0 mm 0.00 in0.0 mm
12:53 AM 27.9°F-2.3°C 10.7°F-11.8°C 48% 0.8 mph N1.3 kmh N 2.6 mph4.2 kmh 30.25 in1024.4 mb 0.00 in0.0 mm 0.00 in0.0 mm 0.00 in0.0 mm
12:52 AM 28.0°F-2.2°C 10.8°F-11.8°C 48% 0.9 mph N1.4 kmh N 2.6 mph4.2 kmh 30.24 in1024.0 mb 0.00 in0.0 mm 0.00 in0.0 mm 0.00 in0.0 mm
12:51 AM 28.0°F-2.2°C 10.8°F-11.8°C 48% 0.9 mph N1.4 kmh N 2.6 mph4.2 kmh 30.24 in1024.0 mb 0.00 in0.0 mm 0.00 in0.0 mm 0.00 in0.0 mm
12:50 AM 28.0°F-2.2°C 10.8°F-11.8°C 48% 0.9 mph N1.4 kmh N 2.6 mph4.2 kmh 30.24 in1024.0 mb 0.00 in0.0 mm 0.00 in0.0 mm 0.00 in0.0 mm
12:49 AM 28.4°F-2.0°C 13.0°F-10.6°C 52% 1.0 mph N1.6 kmh N 2.6 mph4.2 kmh 30.24 in1024.0 mb 0.00 in0.0 mm 0.00 in0.0 mm 0.00 in0.0 mm
12:48 AM 28.6°F-1.9°C 12.3°F-10.9°C 50% 1.2 mph NNW1.9 kmh NNW 2.6 mph4.2 kmh 30.24 in1024.0 mb 0.00 in0.0 mm 0.00 in0.0 mm 0.00 in0.0 mm
12:47 AM 28.6°F-1.9°C 11.8°F-11.2°C 49% 1.3 mph NNW2.1 kmh NNW 2.6 mph4.2 kmh 30.24 in1024.0 mb 0.00 in0.0 mm 0.00 in0.0 mm 0.00 in0.0 mm
12:46 AM 28.6°F-1.9°C 11.8°F-11.2°C 49% 1.3 mph NNW2.1 kmh NNW 2.6 mph4.2 kmh 30.24 in1024.0 mb 0.00 in0.0 mm 0.00 in0.0 mm 0.00 in0.0 mm
12:45 AM 28.8°F-1.8°C 11.5°F-11.4°C 48% 1.0 mph NW1.6 kmh NW 2.6 mph4.2 kmh 30.24 in1024.0 mb 0.00 in0.0 mm 0.00 in0.0 mm 0.00 in0.0 mm
12:44 AM 28.8°F-1.8°C 11.0°F-11.7°C 47% 0.8 mph NW1.3 kmh NW 1.7 mph2.7 kmh 30.23 in1023.7 mb 0.00 in0.0 mm 0.00 in0.0 mm 0.00 in0.0 mm
12:43 AM 28.8°F-1.8°C 11.0°F-11.7°C 47% 0.7 mph NW1.1 kmh NW 1.7 mph2.7 kmh 30.23 in1023.7 mb 0.00 in0.0 mm 0.00 in0.0 mm 0.00 in0.0 mm
12:42 AM 28.8°F-1.8°C 11.0°F-11.7°C 47% 0.5 mph NW0.8 kmh NW 1.7 mph2.7 kmh 30.23 in1023.7 mb 0.00 in0.0 mm 0.00 in0.0 mm 0.00 in0.0 mm
12:41 AM 28.6°F-1.9°C 11.3°F-11.5°C 48% 0.5 mph NW0.8 kmh NW 1.7 mph2.7 kmh 30.23 in1023.7 mb 0.00 in0.0 mm 0.00 in0.0 mm 0.00 in0.0 mm
12:40 AM 28.8°F-1.8°C 11.5°F-11.4°C 48% 0.5 mph NW0.8 kmh NW 1.7 mph2.7 kmh 30.23 in1023.7 mb 0.00 in0.0 mm 0.00 in0.0 mm 0.00 in0.0 mm
12:39 AM 28.8°F-1.8°C 11.5°F-11.4°C 48% 0.5 mph NW0.8 kmh NW 1.7 mph2.7 kmh 30.23 in1023.7 mb 0.00 in0.0 mm 0.00 in0.0 mm 0.00 in0.0 mm
12:38 AM 28.8°F-1.8°C 11.0°F-11.7°C 47% 0.3 mph NW0.5 kmh NW 1.7 mph2.7 kmh 30.23 in1023.7 mb 0.00 in0.0 mm 0.00 in0.0 mm 0.00 in0.0 mm
12:37 AM 28.8°F-1.8°C 11.0°F-11.7°C 47% 0.1 mph NW0.2 kmh NW 1.7 mph2.7 kmh 30.23 in1023.7 mb 0.00 in0.0 mm 0.00 in0.0 mm 0.00 in0.0 mm
12:36 AM 28.8°F-1.8°C 11.0°F-11.7°C 47% Calm Calm -- 30.22 in1023.4 mb 0.00 in0.0 mm 0.00 in0.0 mm 0.00 in0.0 mm
12:35 AM 28.8°F-1.8°C 11.0°F-11.7°C 47% Calm Calm -- 30.22 in1023.4 mb 0.00 in0.0 mm 0.00 in0.0 mm 0.00 in0.0 mm
12:34 AM 28.8°F-1.8°C 11.0°F-11.7°C 47% Calm Calm -- 30.22 in1023.4 mb 0.00 in0.0 mm 0.00 in0.0 mm 0.00 in0.0 mm
12:33 AM 28.8°F-1.8°C 11.0°F-11.7°C 47% Calm Calm -- 30.22 in1023.4 mb 0.00 in0.0 mm 0.00 in0.0 mm 0.00 in0.0 mm
12:32 AM 28.8°F-1.8°C 10.6°F-11.9°C 46% Calm Calm -- 30.22 in1023.4 mb 0.00 in0.0 mm 0.00 in0.0 mm 0.00 in0.0 mm
12:31 AM 28.8°F-1.8°C 10.6°F-11.9°C 46% Calm Calm -- 30.22 in1023.4 mb 0.00 in0.0 mm 0.00 in0.0 mm 0.00 in0.0 mm
12:30 AM 28.6°F-1.9°C 10.4°F-12.0°C 46% Calm Calm -- 30.22 in1023.4 mb 0.00 in0.0 mm 0.00 in0.0 mm 0.00 in0.0 mm
12:29 AM 28.6°F-1.9°C 10.4°F-12.0°C 46% Calm Calm -- 30.22 in1023.4 mb 0.00 in0.0 mm 0.00 in0.0 mm 0.00 in0.0 mm
12:28 AM 28.8°F-1.8°C 10.6°F-11.9°C 46% Calm Calm -- 30.22 in1023.4 mb 0.00 in0.0 mm 0.00 in0.0 mm 0.00 in0.0 mm
12:27 AM 28.8°F-1.8°C 10.6°F-11.9°C 46% Calm Calm -- 30.22 in1023.4 mb 0.00 in0.0 mm 0.00 in0.0 mm 0.00 in0.0 mm
12:26 AM 28.8°F-1.8°C 10.6°F-11.9°C 46% Calm Calm -- 30.22 in1023.4 mb 0.00 in0.0 mm 0.00 in0.0 mm 0.00 in0.0 mm
12:25 AM 28.8°F-1.8°C 10.6°F-11.9°C 46% Calm Calm -- 30.22 in1023.4 mb 0.00 in0.0 mm 0.00 in0.0 mm 0.00 in0.0 mm
12:24 AM 28.6°F-1.9°C 10.4°F-12.0°C 46% Calm Calm -- 30.22 in1023.4 mb 0.00 in0.0 mm 0.00 in0.0 mm 0.00 in0.0 mm
12:23 AM 28.6°F-1.9°C 10.4°F-12.0°C 46% Calm Calm -- 30.21 in1023.0 mb 0.00 in0.0 mm 0.00 in0.0 mm 0.00 in0.0 mm
12:22 AM 28.8°F-1.8°C 11.0°F-11.7°C 47% Calm Calm -- 30.21 in1023.0 mb 0.00 in0.0 mm 0.00 in0.0 mm 0.00 in0.0 mm
12:21 AM 28.6°F-1.9°C 10.9°F-11.7°C 47% Calm Calm -- 30.21 in1023.0 mb 0.00 in0.0 mm 0.00 in0.0 mm 0.00 in0.0 mm
12:20 AM 28.8°F-1.8°C 11.5°F-11.4°C 48% Calm Calm -- 30.21 in1023.0 mb 0.00 in0.0 mm 0.00 in0.0 mm 0.00 in0.0 mm
12:19 AM 28.4°F-2.0°C 11.6°F-11.3°C 49% Calm Calm -- 30.21 in1023.0 mb 0.00 in0.0 mm 0.00 in0.0 mm 0.00 in0.0 mm
12:18 AM 28.4°F-2.0°C 12.1°F-11.1°C 50% 0.1 mph S0.2 kmh S 0.9 mph1.4 kmh 30.21 in1023.0 mb 0.00 in0.0 mm 0.00 in0.0 mm 0.00 in0.0 mm
12:17 AM 28.4°F-2.0°C 12.1°F-11.1°C 50% 0.2 mph S0.3 kmh S 1.7 mph2.7 kmh 30.21 in1023.0 mb 0.00 in0.0 mm 0.00 in0.0 mm 0.00 in0.0 mm
12:16 AM 28.4°F-2.0°C 11.6°F-11.3°C 49% 0.2 mph S0.3 kmh S 1.7 mph2.7 kmh 30.21 in1023.0 mb 0.00 in0.0 mm 0.00 in0.0 mm 0.00 in0.0 mm
12:15 AM 28.9°F-1.7°C 12.6°F-10.8°C 50% 0.4 mph SW0.6 kmh SW 2.6 mph4.2 kmh 30.21 in1023.0 mb 0.00 in0.0 mm 0.00 in0.0 mm 0.00 in0.0 mm
12:14 AM 28.9°F-1.7°C 11.7°F-11.3°C 48% 0.6 mph W1.0 kmh W 2.6 mph4.2 kmh 30.21 in1023.0 mb 0.00 in0.0 mm 0.00 in0.0 mm 0.00 in0.0 mm
12:13 AM 28.8°F-1.8°C 10.6°F-11.9°C 46% 0.6 mph W1.0 kmh W 2.6 mph4.2 kmh 30.20 in1022.7 mb 0.00 in0.0 mm 0.00 in0.0 mm 0.00 in0.0 mm
12:12 AM 28.8°F-1.8°C 10.1°F-12.2°C 45% 0.6 mph W1.0 kmh W 2.6 mph4.2 kmh 30.21 in1023.0 mb 0.00 in0.0 mm 0.00 in0.0 mm 0.00 in0.0 mm
12:11 AM 28.9°F-1.7°C 10.2°F-12.1°C 45% 0.6 mph W1.0 kmh W 2.6 mph4.2 kmh 30.20 in1022.7 mb 0.00 in0.0 mm 0.00 in0.0 mm 0.00 in0.0 mm
12:10 AM 28.9°F-1.7°C 10.7°F-11.8°C 46% 0.6 mph W1.0 kmh W 2.6 mph4.2 kmh 30.21 in1023.0 mb 0.00 in0.0 mm 0.00 in0.0 mm 0.00 in0.0 mm
12:09 AM 28.9°F-1.7°C 11.2°F-11.6°C 47% 0.6 mph W1.0 kmh W 2.6 mph4.2 kmh 30.21 in1023.0 mb 0.00 in0.0 mm 0.00 in0.0 mm 0.00 in0.0 mm
12:08 AM 28.8°F-1.8°C 11.5°F-11.4°C 48% 0.5 mph WNW0.8 kmh WNW 2.6 mph4.2 kmh 30.21 in1023.0 mb 0.00 in0.0 mm 0.00 in0.0 mm 0.00 in0.0 mm
12:07 AM 28.9°F-1.7°C 11.7°F-11.3°C 48% 0.4 mph NW0.6 kmh NW 2.6 mph4.2 kmh 30.21 in1023.0 mb 0.00 in0.0 mm 0.00 in0.0 mm 0.00 in0.0 mm
12:06 AM 28.9°F-1.7°C 11.2°F-11.6°C 47% 0.4 mph NW0.6 kmh NW 2.6 mph4.2 kmh 30.21 in1023.0 mb 0.00 in0.0 mm 0.00 in0.0 mm 0.00 in0.0 mm
12:05 AM 28.8°F-1.8°C 10.6°F-11.9°C 46% 0.3 mph N0.5 kmh N 2.6 mph4.2 kmh 30.21 in1023.0 mb 0.00 in0.0 mm 0.00 in0.0 mm 0.00 in0.0 mm
12:04 AM 28.0°F-2.2°C 8.9°F-12.8°C 44% Calm Calm -- 30.21 in1023.0 mb 0.00 in0.0 mm 0.00 in0.0 mm 0.00 in0.0 mm
12:03 AM 28.2°F-2.1°C 10.1°F-12.2°C 46% Calm Calm -- 30.22 in1023.4 mb 0.00 in0.0 mm 0.00 in0.0 mm 0.00 in0.0 mm
12:02 AM 28.2°F-2.1°C 10.5°F-11.9°C 47% Calm Calm -- 30.21 in1023.0 mb 0.00 in0.0 mm 0.00 in0.0 mm 0.00 in0.0 mm
12:01 AM 28.2°F-2.1°C 11.0°F-11.7°C 48% Calm Calm -- 30.21 in1023.0 mb 0.00 in0.0 mm 0.00 in0.0 mm 0.00 in0.0 mm
12:00 AM 28.2°F-2.1°C 11.0°F-11.7°C 48% Calm Calm -- 30.22 in1023.4 mb 0.00 in0.0 mm 0.00 in0.0 mm 0.00 in0.0 mm